createdAt,value
2022-11-13T00:00:13.239Z,19.15
2022-11-13T00:03:20.139Z,19.00
2022-11-13T00:06:07.787Z,18.92
2022-11-13T00:08:55.570Z,18.90
2022-11-13T00:11:43.507Z,18.92
2022-11-13T10:14:46.827Z,15.65
2022-11-13T10:17:44.226Z,15.73
2022-11-13T10:20:46.249Z,15.77
2022-11-13T10:23:38.039Z,15.77
2022-11-13T10:26:28.914Z,15.74
2022-11-13T10:29:18.817Z,15.69
2022-11-13T10:32:26.970Z,15.66
2022-11-13T10:35:45.728Z,15.59
2022-11-13T10:38:44.665Z,15.50
2022-11-13T10:41:32.419Z,15.44
2022-11-13T10:44:29.989Z,15.42
2022-11-13T10:47:42.373Z,15.39
2022-11-13T10:50:29.948Z,15.31
2022-11-13T10:53:18.765Z,15.28
2022-11-13T10:56:21.843Z,15.27
2022-11-13T10:59:15.094Z,15.27
2022-11-13T11:02:23.170Z,15.26
2022-11-13T11:05:22.622Z,15.30
2022-11-13T11:08:11.153Z,15.33
2022-11-13T11:11:32.888Z,15.37
2022-11-13T11:14:26.767Z,15.42
2022-11-13T11:17:17.100Z,15.46
2022-11-13T11:20:16.756Z,15.48
2022-11-13T11:23:51.815Z,15.49
2022-11-13T11:26:49.626Z,15.47
2022-11-13T11:29:49.925Z,15.45
2022-11-13T11:32:45.308Z,15.40
2022-11-13T11:36:07.787Z,15.36
2022-11-13T11:38:57.952Z,15.33
2022-11-13T11:41:55.207Z,15.31
2022-11-13T11:44:57.648Z,15.29
2022-11-13T11:47:44.811Z,15.25
2022-11-13T11:50:35.093Z,15.22
2022-11-13T11:53:34.090Z,15.21
2022-11-13T11:56:26.742Z,15.19
2022-11-13T11:59:31.499Z,15.18
2022-11-13T12:02:38.556Z,15.17
2022-11-13T12:05:40.699Z,15.16
2022-11-13T12:08:33.870Z,15.16
2022-11-13T12:11:23.840Z,15.15
2022-11-13T12:14:30.041Z,15.14
2022-11-13T12:17:42.148Z,15.13
2022-11-13T12:20:37.904Z,15.10
2022-11-13T12:23:27.946Z,15.09
2022-11-13T12:26:36.192Z,15.08
2022-11-13T12:29:25.928Z,15.06
2022-11-13T12:32:53.427Z,15.04
2022-11-13T12:35:40.893Z,15.03
2022-11-13T12:38:36.495Z,15.02
2022-11-13T12:41:33.411Z,15.02
2022-11-13T12:44:27.678Z,15.01
2022-11-13T12:47:15.341Z,15.01
2022-11-13T12:50:07.542Z,15.02
2022-11-13T12:53:06.455Z,15.01
2022-11-13T12:56:00.516Z,14.99
2022-11-13T12:59:15.364Z,14.96
2022-11-13T13:02:09.294Z,14.95
2022-11-13T13:04:59.148Z,15.49
2022-11-13T13:08:09.935Z,17.34
2022-11-13T13:11:06.740Z,18.30
2022-11-13T13:14:12.011Z,18.44
2022-11-13T13:17:14.219Z,17.71
2022-11-13T13:20:07.243Z,17.12
2022-11-13T13:22:59.610Z,16.75
2022-11-13T13:25:46.769Z,16.45
2022-11-13T13:28:38.529Z,16.25
2022-11-13T13:31:49.704Z,16.05
2022-11-13T13:34:54.779Z,15.88
2022-11-13T13:38:00.133Z,15.72
2022-11-13T13:41:31.641Z,15.49
2022-11-13T13:44:26.248Z,16.21
2022-11-13T13:47:40.722Z,17.90
2022-11-13T13:50:32.709Z,18.49
2022-11-13T13:53:23.599Z,17.80
2022-11-13T13:56:12.884Z,17.17
2022-11-13T13:59:01.672Z,16.74
2022-11-13T14:02:00.221Z,16.41
2022-11-13T14:04:53.295Z,16.16
2022-11-13T14:07:46.021Z,15.92
2022-11-13T14:10:36.022Z,15.69
2022-11-13T14:13:27.717Z,15.48
2022-11-13T14:16:15.455Z,15.85
2022-11-13T14:19:04.960Z,17.50
2022-11-13T14:21:59.283Z,18.52
2022-11-13T14:24:55.024Z,18.77
2022-11-13T14:27:42.208Z,18.06
2022-11-13T14:30:31.296Z,17.41
2022-11-13T14:33:25.003Z,16.94
2022-11-13T14:36:14.071Z,16.57
2022-11-13T14:39:01.291Z,16.27
2022-11-13T14:41:59.930Z,16.02
2022-11-13T14:44:46.806Z,15.80
2022-11-13T14:47:37.789Z,15.60
2022-11-13T14:50:27.274Z,15.91
2022-11-13T14:53:13.946Z,17.52
2022-11-13T14:56:09.118Z,18.37
2022-11-13T14:59:25.406Z,17.77
2022-11-13T15:02:13.158Z,16.99
2022-11-13T15:05:00.230Z,16.55
2022-11-13T15:07:47.172Z,16.22
2022-11-13T15:10:34.703Z,15.94
2022-11-13T15:13:22.078Z,15.71
2022-11-13T15:16:16.003Z,15.51
2022-11-13T15:19:16.962Z,15.86
2022-11-13T15:22:33.611Z,17.53
2022-11-13T15:25:19.630Z,18.50
2022-11-13T15:28:06.834Z,18.74
2022-11-13T15:30:54.184Z,18.03
2022-11-13T15:33:41.212Z,17.34
2022-11-13T15:36:28.350Z,16.85
2022-11-13T15:39:23.364Z,16.48
2022-11-13T15:42:17.645Z,16.16
2022-11-13T15:45:08.775Z,15.89
2022-11-13T15:47:55.693Z,15.67
2022-11-13T15:50:42.788Z,15.47
2022-11-13T15:53:30.242Z,15.77
2022-11-13T15:56:18.747Z,17.32
2022-11-13T15:59:05.926Z,18.30
2022-11-13T16:01:57.969Z,18.56
2022-11-13T16:04:56.159Z,17.85
2022-11-13T16:07:44.299Z,17.13
2022-11-13T16:10:31.233Z,16.65
2022-11-13T16:13:18.180Z,16.29
2022-11-13T16:16:05.833Z,15.98
2022-11-13T16:18:58.836Z,15.71
2022-11-13T16:21:47.387Z,15.47
2022-11-13T16:24:34.336Z,15.76
2022-11-13T16:27:34.035Z,17.40
2022-11-13T16:30:23.425Z,18.29
2022-11-13T16:33:11.364Z,17.65
2022-11-13T16:35:58.666Z,16.94
2022-11-13T16:38:46.641Z,16.44
2022-11-13T16:41:33.824Z,16.06
2022-11-13T16:44:21.119Z,15.76
2022-11-13T16:47:26.009Z,15.92
2022-11-13T16:50:33.552Z,17.55
2022-11-13T16:53:20.565Z,18.35
2022-11-13T16:56:18.026Z,17.68
2022-11-13T16:59:05.128Z,16.93
2022-11-13T17:01:55.754Z,16.41
2022-11-13T17:04:44.351Z,16.00
2022-11-13T17:07:31.462Z,15.70
2022-11-13T17:10:36.315Z,15.45
2022-11-13T17:13:23.857Z,15.87
2022-11-13T17:16:13.843Z,17.46
2022-11-13T17:19:00.822Z,18.23
2022-11-13T17:21:47.724Z,17.60
2022-11-13T17:24:34.660Z,16.87
2022-11-13T17:27:22.735Z,16.33
2022-11-13T17:30:12.581Z,15.94
2022-11-13T17:32:59.749Z,15.63
2022-11-13T17:35:53.585Z,15.82
2022-11-13T17:38:40.758Z,17.35
2022-11-13T17:41:28.069Z,18.10
2022-11-13T17:44:15.273Z,17.50
2022-11-13T17:47:02.401Z,16.78
2022-11-13T17:49:50.035Z,16.26
2022-11-13T17:52:37.168Z,15.88
2022-11-13T17:55:25.170Z,15.56
2022-11-13T17:58:12.509Z,15.30
2022-11-13T18:01:07.616Z,15.42
2022-11-13T18:03:58.309Z,16.68
2022-11-13T18:06:45.347Z,17.67
2022-11-13T18:09:35.165Z,18.04
2022-11-13T18:12:22.652Z,17.35
2022-11-13T18:15:10.080Z,16.66
2022-11-13T18:17:58.095Z,16.15
2022-11-13T18:20:44.731Z,15.78
2022-11-13T18:23:32.023Z,15.47
2022-11-13T18:26:19.626Z,15.56
2022-11-13T18:29:07.382Z,16.69
2022-11-13T18:31:54.283Z,17.64
2022-11-13T18:34:41.305Z,18.07
2022-11-13T18:37:28.018Z,17.42
2022-11-13T18:40:15.700Z,16.71
2022-11-13T18:43:02.758Z,16.18
2022-11-13T18:46:06.698Z,15.80
2022-11-13T18:48:55.657Z,15.45
2022-11-13T18:51:43.376Z,15.55
2022-11-13T18:54:30.601Z,16.68
2022-11-13T18:57:17.808Z,17.61
2022-11-13T19:00:05.209Z,18.04
2022-11-13T19:02:52.059Z,17.39
2022-11-13T19:05:43.494Z,16.69
2022-11-13T19:08:31.789Z,16.17
2022-11-13T19:11:19.634Z,15.77
2022-11-13T19:14:08.002Z,15.76
2022-11-13T19:16:54.812Z,16.88
2022-11-13T19:19:42.459Z,17.77
2022-11-13T19:22:29.272Z,18.07
2022-11-13T19:25:16.608Z,17.40
2022-11-13T19:28:03.695Z,16.70
2022-11-13T19:30:54.683Z,16.18
2022-11-13T19:33:42.422Z,15.76
2022-11-13T19:36:32.114Z,15.72
2022-11-13T19:39:20.282Z,16.76
2022-11-13T19:42:07.900Z,17.63
2022-11-13T19:44:55.279Z,17.97
2022-11-13T19:47:42.518Z,17.31
2022-11-13T19:50:29.814Z,16.59
2022-11-13T19:53:16.832Z,16.07
2022-11-13T19:56:05.318Z,15.92
2022-11-13T19:58:56.192Z,16.79
2022-11-13T20:01:43.714Z,17.57
2022-11-13T20:04:31.475Z,17.95
2022-11-13T20:07:18.155Z,18.07
2022-11-13T20:10:05.829Z,17.35
2022-11-13T20:12:52.825Z,16.60
2022-11-13T20:15:40.245Z,16.02
2022-11-13T20:18:28.054Z,15.57
2022-11-13T20:21:23.621Z,15.56
2022-11-13T20:24:11.443Z,16.63
2022-11-13T20:26:58.593Z,17.38
2022-11-13T20:29:45.640Z,17.89
2022-11-13T20:32:38.022Z,18.02
2022-11-13T20:35:24.746Z,17.27
2022-11-13T20:38:12.450Z,16.55
2022-11-13T20:41:04.828Z,15.99
2022-11-13T20:43:55.934Z,15.55
2022-11-13T20:46:43.122Z,15.18
2022-11-13T20:49:30.855Z,15.38
2022-11-13T20:52:17.876Z,16.41
2022-11-13T20:55:05.613Z,17.17
2022-11-13T20:57:53.068Z,17.46
2022-11-13T21:00:40.148Z,16.82
2022-11-13T21:03:27.587Z,16.15
2022-11-13T21:06:18.170Z,15.60
2022-11-13T21:09:05.723Z,15.19
2022-11-13T21:11:52.661Z,15.14
2022-11-13T21:14:39.786Z,15.98
2022-11-13T21:17:27.352Z,16.80
2022-11-13T21:20:14.351Z,17.08
2022-11-13T21:23:02.002Z,16.44
2022-11-13T21:25:58.592Z,15.73
2022-11-13T21:28:48.728Z,15.22
2022-11-13T21:31:36.095Z,14.86
2022-11-13T21:34:23.476Z,14.78
2022-11-13T21:37:12.450Z,15.65
2022-11-13T21:39:59.445Z,16.35
2022-11-13T21:42:46.832Z,16.77
2022-11-13T21:45:34.305Z,16.92
2022-11-13T21:48:21.429Z,16.22
2022-11-13T21:51:09.453Z,15.46
2022-11-13T21:53:56.806Z,14.88
2022-11-13T21:56:43.943Z,14.41
2022-11-13T21:59:31.657Z,14.42
2022-11-13T22:02:18.589Z,16.10
2022-11-13T22:05:06.191Z,17.10
2022-11-13T22:07:53.523Z,16.37
2022-11-13T22:10:40.668Z,15.51
2022-11-13T22:13:27.856Z,14.90
2022-11-13T22:16:14.869Z,14.43
2022-11-13T22:19:04.612Z,14.09
2022-11-13T22:21:51.546Z,13.79
2022-11-13T22:24:38.709Z,14.11
2022-11-13T22:27:25.731Z,16.02
2022-11-13T22:30:12.873Z,17.01
2022-11-13T22:33:00.237Z,16.34
2022-11-13T22:35:47.461Z,15.54
2022-11-13T22:38:35.465Z,14.91
2022-11-13T22:41:27.743Z,14.41
2022-11-13T22:44:14.574Z,14.01
2022-11-13T22:47:01.943Z,13.71
2022-11-13T22:49:48.542Z,13.45
2022-11-13T22:52:35.846Z,13.89
2022-11-13T22:55:22.977Z,15.86
2022-11-13T22:58:10.007Z,16.81
2022-11-13T23:01:04.509Z,16.05
2022-11-13T23:03:53.163Z,15.13
2022-11-13T23:06:40.201Z,14.55
2022-11-13T23:09:29.996Z,14.16
2022-11-13T23:12:16.944Z,13.84
2022-11-13T23:15:04.306Z,13.57
2022-11-13T23:17:51.012Z,13.30
2022-11-13T23:20:42.723Z,13.68
2022-11-13T23:23:30.440Z,15.67
2022-11-13T23:26:18.311Z,16.64
2022-11-13T23:29:05.509Z,15.95
2022-11-13T23:31:52.842Z,15.15
2022-11-13T23:34:58.669Z,14.59
2022-11-13T23:37:47.777Z,14.09
2022-11-13T23:40:35.649Z,13.74
2022-11-13T23:43:36.504Z,13.47
2022-11-13T23:46:31.082Z,13.24
2022-11-13T23:49:18.166Z,13.59
2022-11-13T23:52:05.387Z,15.51
2022-11-13T23:54:52.743Z,16.50
2022-11-13T23:57:39.925Z,15.79
